CPA617 VHHH-VTBS
Flight info
| Callsign | CPA617 |
|---|---|
| Flight time | N/A |
| Altitude | 38100 |
| Route | PECAN V10 SIKOU/K0913S1160 A202 ASSAD/K0911F381 A202 VILAO/N0493F381 A202 RAMEI W42 PAKRI Y13 RUKSA EASTE1C |
| Aircraft | A359/H-SDE2E3GHIJ3J4J5LM1ORWXY/LB1D1 |
Departure
| Time | 2026-05-07 19:52 |
|---|---|
| Airport | Hong Kong International Airport (VHHH) |
Arrival
| Time | N/A |
|---|---|
| Airport | Suvarnabhumi Airport (VTBS) |
| Time | Latitude | Longitude | Altitude | Speed | Heading |
|---|---|---|---|---|---|
| 2026-05-07 19:16 | 22.31452 | 113.93003 | 40 ft | 0 kts | 160° |
| 2026-05-07 19:40 | 22.31461 | 113.92999 | 40 ft | 2 kts | 160° |
| 2026-05-07 19:41 | 22.31475 | 113.92994 | 40 ft | 2 kts | 160° |
| 2026-05-07 19:41 | 22.31489 | 113.92989 | 40 ft | 2 kts | 160° |
| 2026-05-07 19:41 | 22.31501 | 113.92984 | 40 ft | 2 kts | 165° |
| 2026-05-07 19:41 | 22.31519 | 113.92982 | 40 ft | 2 kts | 189° |
| 2026-05-07 19:42 | 22.31533 | 113.92986 | 40 ft | 2 kts | 205° |
| 2026-05-07 19:42 | 22.31546 | 113.92995 | 40 ft | 2 kts | 222° |
| 2026-05-07 19:42 | 22.31556 | 113.93007 | 40 ft | 2 kts | 238° |
| 2026-05-07 19:42 | 22.31561 | 113.93018 | 40 ft | 0 kts | 250° |
| 2026-05-07 19:43 | 22.31562 | 113.93022 | 40 ft | 0 kts | 252° |
| 2026-05-07 19:45 | 22.31562 | 113.93021 | 40 ft | 0 kts | 251° |
| 2026-05-07 19:45 | 22.31551 | 113.92986 | 40 ft | 9 kts | 251° |
| 2026-05-07 19:45 | 22.31520 | 113.92894 | 40 ft | 15 kts | 251° |
| 2026-05-07 19:45 | 22.31499 | 113.92826 | 40 ft | 16 kts | 251° |
| 2026-05-07 19:46 | 22.31512 | 113.92711 | 40 ft | 9 kts | 297° |
| 2026-05-07 19:46 | 22.31561 | 113.92608 | 40 ft | 17 kts | 296° |
| 2026-05-07 19:46 | 22.31622 | 113.92474 | 40 ft | 20 kts | 300° |
| 2026-05-07 19:46 | 22.31712 | 113.92425 | 40 ft | 11 kts | 337° |
| 2026-05-07 19:47 | 22.31733 | 113.92358 | 40 ft | 9 kts | 255° |
| 2026-05-07 19:47 | 22.31706 | 113.92270 | 40 ft | 15 kts | 251° |
| 2026-05-07 19:47 | 22.31663 | 113.92133 | 40 ft | 22 kts | 251° |
| 2026-05-07 19:47 | 22.31606 | 113.91956 | 40 ft | 26 kts | 251° |
| 2026-05-07 19:48 | 22.31545 | 113.91768 | 40 ft | 27 kts | 251° |
| 2026-05-07 19:48 | 22.31481 | 113.91573 | 40 ft | 28 kts | 251° |
| 2026-05-07 19:48 | 22.31417 | 113.91375 | 40 ft | 26 kts | 251° |
| 2026-05-07 19:48 | 22.31359 | 113.91192 | 40 ft | 25 kts | 251° |
| 2026-05-07 19:49 | 22.31302 | 113.91016 | 40 ft | 24 kts | 251° |
| 2026-05-07 19:49 | 22.31247 | 113.90846 | 40 ft | 24 kts | 251° |
| 2026-05-07 19:49 | 22.31190 | 113.90668 | 40 ft | 25 kts | 251° |
| 2026-05-07 19:49 | 22.31132 | 113.90488 | 40 ft | 26 kts | 251° |
| 2026-05-07 19:50 | 22.31071 | 113.90299 | 40 ft | 27 kts | 251° |
| 2026-05-07 19:50 | 22.31007 | 113.90101 | 40 ft | 28 kts | 251° |
| 2026-05-07 19:50 | 22.30943 | 113.89900 | 40 ft | 27 kts | 251° |
| 2026-05-07 19:50 | 22.30949 | 113.89802 | 40 ft | 10 kts | 333° |
| 2026-05-07 19:51 | 22.31006 | 113.89780 | 40 ft | 6 kts | 342° |
| 2026-05-07 19:51 | 22.31060 | 113.89768 | 40 ft | 7 kts | 7° |
| 2026-05-07 19:51 | 22.31095 | 113.89803 | 40 ft | 7 kts | 68° |
| 2026-05-07 19:51 | 22.31163 | 113.90017 | 40 ft | 63 kts | 70° |
| 2026-05-07 19:52 | 22.31381 | 113.90688 | 40 ft | 124 kts | 71° |
| 2026-05-07 19:52 | 22.31731 | 113.91735 | 111 ft | 164 kts | 69° |
| 2026-05-07 19:52 | 22.32124 | 113.92873 | 687 ft | 160 kts | 71° |
| 2026-05-07 19:52 | 22.32483 | 113.93990 | 1305 ft | 158 kts | 72° |
| 2026-05-07 19:53 | 22.32837 | 113.95100 | 1847 ft | 161 kts | 72° |
| 2026-05-07 19:53 | 22.33200 | 113.96241 | 2373 ft | 164 kts | 73° |
| 2026-05-07 19:53 | 22.33484 | 113.97441 | 2908 ft | 166 kts | 81° |
| 2026-05-07 19:53 | 22.33688 | 113.98664 | 3385 ft | 172 kts | 81° |
| 2026-05-07 19:54 | 22.33902 | 114.00002 | 3764 ft | 187 kts | 81° |
| 2026-05-07 19:54 | 22.34131 | 114.01423 | 4140 ft | 202 kts | 81° |
| 2026-05-07 19:54 | 22.34382 | 114.02993 | 4502 ft | 220 kts | 83° |
| 2026-05-07 19:54 | 22.34334 | 114.04660 | 4993 ft | 231 kts | 105° |
| 2026-05-07 19:55 | 22.33696 | 114.06258 | 5683 ft | 233 kts | 126° |
| 2026-05-07 19:55 | 22.32586 | 114.07500 | 6388 ft | 234 kts | 144° |
| 2026-05-07 19:55 | 22.31154 | 114.08365 | 6891 ft | 245 kts | 161° |
| 2026-05-07 19:55 | 22.29450 | 114.08777 | 7361 ft | 257 kts | 178° |
| 2026-05-07 19:56 | 22.27614 | 114.08793 | 7868 ft | 268 kts | 182° |
| 2026-05-07 19:56 | 22.25706 | 114.08747 | 8298 ft | 283 kts | 182° |
| 2026-05-07 19:56 | 22.23696 | 114.08701 | 8902 ft | 291 kts | 182° |
| 2026-05-07 19:56 | 22.21671 | 114.08669 | 9581 ft | 294 kts | 182° |
| 2026-05-07 19:57 | 22.19623 | 114.08646 | 10240 ft | 298 kts | 182° |
| 2026-05-07 19:57 | 22.17488 | 114.08622 | 10629 ft | 312 kts | 182° |
| 2026-05-07 19:57 | 22.15268 | 114.08604 | 10941 ft | 328 kts | 182° |
| 2026-05-07 19:57 | 22.12913 | 114.08610 | 11238 ft | 344 kts | 181° |
| 2026-05-07 19:58 | 22.10486 | 114.08624 | 11520 ft | 359 kts | 181° |
| 2026-05-07 19:58 | 22.07924 | 114.08640 | 11792 ft | 374 kts | 181° |
| 2026-05-07 19:58 | 22.05259 | 114.08655 | 12055 ft | 388 kts | 181° |
| 2026-05-07 19:58 | 22.02516 | 114.08669 | 12435 ft | 397 kts | 181° |
| 2026-05-07 19:59 | 21.99716 | 114.08686 | 12999 ft | 401 kts | 181° |
| 2026-05-07 19:59 | 21.96949 | 114.08703 | 13563 ft | 403 kts | 181° |
| 2026-05-07 19:59 | 21.94094 | 114.08716 | 14088 ft | 407 kts | 181° |
| 2026-05-07 19:59 | 21.91256 | 114.08729 | 14594 ft | 411 kts | 181° |
| 2026-05-07 20:00 | 21.88396 | 114.08741 | 15081 ft | 415 kts | 181° |
| 2026-05-07 20:00 | 21.85502 | 114.08754 | 15553 ft | 419 kts | 181° |
| 2026-05-07 20:00 | 21.82543 | 114.08768 | 16034 ft | 422 kts | 181° |
| 2026-05-07 20:00 | 21.79626 | 114.08781 | 16495 ft | 426 kts | 181° |
| 2026-05-07 20:01 | 21.76648 | 114.08794 | 16955 ft | 429 kts | 181° |
| 2026-05-07 20:01 | 21.73641 | 114.08807 | 17407 ft | 432 kts | 181° |
| 2026-05-07 20:01 | 21.70596 | 114.08821 | 17858 ft | 436 kts | 181° |
| 2026-05-07 20:01 | 21.67563 | 114.08797 | 18287 ft | 438 kts | 184° |
| 2026-05-07 20:02 | 21.64497 | 114.08547 | 18717 ft | 440 kts | 188° |
| 2026-05-07 20:02 | 21.61490 | 114.08044 | 19135 ft | 442 kts | 193° |
| 2026-05-07 20:02 | 21.58468 | 114.07312 | 19545 ft | 444 kts | 195° |
| 2026-05-07 20:02 | 21.55443 | 114.06519 | 19947 ft | 447 kts | 195° |
| 2026-05-07 20:03 | 21.52404 | 114.05715 | 20338 ft | 450 kts | 195° |
| 2026-05-07 20:03 | 21.49383 | 114.04924 | 20712 ft | 453 kts | 195° |
| 2026-05-07 20:03 | 21.46313 | 114.04007 | 21088 ft | 455 kts | 200° |
| 2026-05-07 20:03 | 21.43360 | 114.02756 | 21455 ft | 456 kts | 207° |
| 2026-05-07 20:04 | 21.40552 | 114.01162 | 21820 ft | 457 kts | 213° |
| 2026-05-07 20:04 | 21.37878 | 113.99330 | 22187 ft | 458 kts | 216° |
| 2026-05-07 20:04 | 21.35227 | 113.97444 | 22532 ft | 461 kts | 216° |
| 2026-05-07 20:04 | 21.32562 | 113.95536 | 22874 ft | 463 kts | 216° |
| 2026-05-07 20:05 | 21.29879 | 113.93621 | 23227 ft | 466 kts | 216° |
| 2026-05-07 20:05 | 21.27139 | 113.91673 | 23569 ft | 468 kts | 216° |
| 2026-05-07 20:05 | 21.24414 | 113.89743 | 23879 ft | 471 kts | 216° |
| 2026-05-07 20:05 | 21.21680 | 113.87808 | 24195 ft | 473 kts | 215° |
| 2026-05-07 20:06 | 21.18947 | 113.85879 | 24511 ft | 476 kts | 215° |
| 2026-05-07 20:06 | 21.16155 | 113.83909 | 24825 ft | 478 kts | 215° |
| 2026-05-07 20:06 | 21.13388 | 113.81957 | 25111 ft | 480 kts | 216° |
| 2026-05-07 20:06 | 21.10778 | 113.79739 | 25357 ft | 480 kts | 227° |
| 2026-05-07 20:07 | 21.08646 | 113.77010 | 25668 ft | 478 kts | 238° |
| 2026-05-07 20:07 | 21.07072 | 113.73890 | 25943 ft | 477 kts | 250° |
| 2026-05-07 20:07 | 21.05929 | 113.70538 | 26239 ft | 478 kts | 253° |
| 2026-05-07 20:07 | 21.04862 | 113.67194 | 26484 ft | 481 kts | 253° |
| 2026-05-07 20:08 | 21.03785 | 113.63776 | 26722 ft | 483 kts | 253° |
| 2026-05-07 20:08 | 21.02708 | 113.60384 | 26972 ft | 485 kts | 253° |
| 2026-05-07 20:08 | 21.01622 | 113.56988 | 27229 ft | 486 kts | 253° |
| 2026-05-07 20:08 | 21.00511 | 113.53535 | 27480 ft | 488 kts | 253° |
| 2026-05-07 20:09 | 20.99413 | 113.50137 | 27718 ft | 489 kts | 253° |
| 2026-05-07 20:09 | 20.98293 | 113.46684 | 28089 ft | 489 kts | 253° |
| 2026-05-07 20:09 | 20.97184 | 113.43271 | 28456 ft | 489 kts | 253° |
| 2026-05-07 20:10 | 20.94955 | 113.36426 | 29220 ft | 491 kts | 253° |
| 2026-05-07 20:10 | 20.93825 | 113.32954 | 29627 ft | 490 kts | 252° |
| 2026-05-07 20:10 | 20.92721 | 113.29555 | 29980 ft | 489 kts | 252° |
| 2026-05-07 20:10 | 20.91605 | 113.26122 | 30336 ft | 489 kts | 252° |
| 2026-05-07 20:11 | 20.90490 | 113.22701 | 30716 ft | 488 kts | 252° |
| 2026-05-07 20:11 | 20.89374 | 113.19293 | 31083 ft | 487 kts | 252° |
| 2026-05-07 20:11 | 20.88239 | 113.15871 | 31441 ft | 486 kts | 252° |
| 2026-05-07 20:11 | 20.87108 | 113.12459 | 31798 ft | 486 kts | 252° |
| 2026-05-07 20:12 | 20.85997 | 113.09102 | 32174 ft | 484 kts | 252° |
| 2026-05-07 20:12 | 20.84873 | 113.05690 | 32524 ft | 484 kts | 252° |
| 2026-05-07 20:12 | 20.83761 | 113.02309 | 32859 ft | 483 kts | 252° |
| 2026-05-07 20:12 | 20.82655 | 112.98949 | 33219 ft | 482 kts | 252° |
| 2026-05-07 20:13 | 20.81542 | 112.95570 | 33630 ft | 481 kts | 252° |
| 2026-05-07 20:13 | 20.80439 | 112.92220 | 34036 ft | 479 kts | 253° |
| 2026-05-07 20:13 | 20.79341 | 112.88892 | 34429 ft | 477 kts | 253° |
| 2026-05-07 20:13 | 20.78242 | 112.85559 | 34832 ft | 475 kts | 253° |
| 2026-05-07 20:14 | 20.77153 | 112.82259 | 35225 ft | 473 kts | 253° |
| 2026-05-07 20:14 | 20.76057 | 112.78938 | 35580 ft | 472 kts | 253° |
| 2026-05-07 20:14 | 20.74970 | 112.75642 | 35888 ft | 471 kts | 253° |
| 2026-05-07 20:14 | 20.73899 | 112.72395 | 36167 ft | 470 kts | 253° |
| 2026-05-07 20:15 | 20.72806 | 112.69085 | 36417 ft | 470 kts | 253° |
| 2026-05-07 20:15 | 20.71721 | 112.65803 | 36596 ft | 471 kts | 253° |
| 2026-05-07 20:15 | 20.70631 | 112.62509 | 36759 ft | 472 kts | 253° |
| 2026-05-07 20:15 | 20.69532 | 112.59188 | 36946 ft | 473 kts | 253° |
| 2026-05-07 20:16 | 20.68444 | 112.55905 | 37132 ft | 473 kts | 253° |
| 2026-05-07 20:16 | 20.67342 | 112.52581 | 37305 ft | 474 kts | 253° |
| 2026-05-07 20:16 | 20.66248 | 112.49281 | 37447 ft | 475 kts | 253° |
| 2026-05-07 20:16 | 20.65144 | 112.45955 | 37574 ft | 476 kts | 253° |
| 2026-05-07 20:17 | 20.64045 | 112.42646 | 37700 ft | 477 kts | 253° |
| 2026-05-07 20:17 | 20.62940 | 112.39320 | 37831 ft | 478 kts | 253° |
| 2026-05-07 20:17 | 20.61826 | 112.35963 | 37971 ft | 478 kts | 253° |
| 2026-05-07 20:18 | 20.59609 | 112.29285 | 37967 ft | 482 kts | 253° |
| 2026-05-07 20:18 | 20.57716 | 112.22502 | 37977 ft | 475 kts | 262° |
| 2026-05-07 20:19 | 20.57275 | 112.15514 | 37981 ft | 470 kts | 275° |
| 2026-05-07 20:19 | 20.58337 | 112.08718 | 37977 ft | 468 kts | 288° |
| 2026-05-07 20:20 | 20.60762 | 112.02303 | 37982 ft | 466 kts | 296° |
| 2026-05-07 20:20 | 20.63593 | 111.96067 | 37976 ft | 466 kts | 297° |
| 2026-05-07 20:21 | 20.66409 | 111.89874 | 37971 ft | 466 kts | 296° |
| 2026-05-07 20:21 | 20.69223 | 111.83647 | 37976 ft | 466 kts | 296° |
| 2026-05-07 20:22 | 20.72024 | 111.77432 | 37976 ft | 466 kts | 296° |
| 2026-05-07 20:22 | 20.74834 | 111.71183 | 37971 ft | 467 kts | 296° |
| 2026-05-07 20:23 | 20.77633 | 111.64951 | 37975 ft | 467 kts | 296° |
| 2026-05-07 20:23 | 20.80286 | 111.58634 | 37971 ft | 468 kts | 290° |
| 2026-05-07 20:24 | 20.81739 | 111.51877 | 37971 ft | 471 kts | 278° |
| 2026-05-07 20:24 | 20.81744 | 111.44853 | 37974 ft | 474 kts | 265° |
| 2026-05-07 20:25 | 20.80284 | 111.38024 | 37970 ft | 478 kts | 254° |
| 2026-05-07 20:25 | 20.78054 | 111.31326 | 37972 ft | 479 kts | 252° |
| 2026-05-07 20:26 | 20.75797 | 111.24651 | 37973 ft | 479 kts | 252° |
| 2026-05-07 20:26 | 20.73539 | 111.17947 | 37973 ft | 479 kts | 252° |
| 2026-05-07 20:27 | 20.71301 | 111.11298 | 37973 ft | 479 kts | 252° |
| 2026-05-07 20:27 | 20.69036 | 111.04571 | 37972 ft | 480 kts | 252° |
| 2026-05-07 20:28 | 20.66792 | 110.97915 | 37968 ft | 480 kts | 252° |
| 2026-05-07 20:28 | 20.64526 | 110.91206 | 37967 ft | 480 kts | 252° |
| 2026-05-07 20:29 | 20.62279 | 110.84538 | 37959 ft | 480 kts | 252° |
| 2026-05-07 20:29 | 20.60037 | 110.77859 | 37959 ft | 480 kts | 252° |
| 2026-05-07 20:30 | 20.57795 | 110.71180 | 37963 ft | 480 kts | 252° |
| 2026-05-07 20:30 | 20.55543 | 110.64484 | 37965 ft | 480 kts | 252° |
| 2026-05-07 20:31 | 20.53225 | 110.57837 | 37972 ft | 480 kts | 250° |
| 2026-05-07 20:31 | 20.50366 | 110.51405 | 37969 ft | 482 kts | 244° |
| 2026-05-07 20:32 | 20.46890 | 110.45280 | 37977 ft | 484 kts | 238° |
| 2026-05-07 20:32 | 20.42841 | 110.39539 | 37979 ft | 486 kts | 233° |
| 2026-05-07 20:33 | 20.38614 | 110.33991 | 37984 ft | 486 kts | 233° |
| 2026-05-07 20:33 | 20.34364 | 110.28395 | 37985 ft | 486 kts | 233° |
| 2026-05-07 20:34 | 20.30110 | 110.22818 | 37979 ft | 486 kts | 233° |
| 2026-05-07 20:34 | 20.25894 | 110.17217 | 37978 ft | 486 kts | 234° |
| 2026-05-07 20:35 | 20.21682 | 110.11589 | 37976 ft | 486 kts | 234° |
| 2026-05-07 20:35 | 20.17455 | 110.05950 | 37977 ft | 485 kts | 234° |
| 2026-05-07 20:36 | 20.13251 | 110.00350 | 37976 ft | 485 kts | 234° |
| 2026-05-07 20:36 | 20.09073 | 109.94789 | 37977 ft | 485 kts | 234° |
| 2026-05-07 20:37 | 20.04857 | 109.89181 | 37976 ft | 485 kts | 234° |
| 2026-05-07 20:37 | 20.00650 | 109.83597 | 37972 ft | 485 kts | 234° |
| 2026-05-07 20:38 | 19.96430 | 109.78002 | 37972 ft | 485 kts | 234° |
| 2026-05-07 20:38 | 19.92229 | 109.72433 | 37972 ft | 485 kts | 234° |
| 2026-05-07 20:39 | 19.88008 | 109.66853 | 37972 ft | 484 kts | 234° |
| 2026-05-07 20:39 | 19.83795 | 109.61322 | 37971 ft | 483 kts | 234° |
| 2026-05-07 20:40 | 19.79590 | 109.55781 | 37969 ft | 483 kts | 234° |
| 2026-05-07 20:40 | 19.75379 | 109.50225 | 37966 ft | 483 kts | 234° |
| 2026-05-07 20:41 | 19.71182 | 109.44687 | 37965 ft | 483 kts | 234° |
| 2026-05-07 20:41 | 19.66969 | 109.39130 | 37967 ft | 483 kts | 234° |
| 2026-05-07 20:42 | 19.62740 | 109.33552 | 37972 ft | 483 kts | 234° |
| 2026-05-07 20:42 | 19.58572 | 109.28033 | 37971 ft | 483 kts | 234° |
| 2026-05-07 20:43 | 19.54360 | 109.22482 | 37973 ft | 482 kts | 234° |
| 2026-05-07 20:43 | 19.50136 | 109.16952 | 37977 ft | 482 kts | 233° |
| 2026-05-07 20:44 | 19.45913 | 109.11484 | 37977 ft | 483 kts | 233° |
| 2026-05-07 20:44 | 19.41658 | 109.05975 | 37977 ft | 483 kts | 234° |
| 2026-05-07 20:45 | 19.37413 | 109.00475 | 37977 ft | 482 kts | 234° |
| 2026-05-07 20:45 | 19.33190 | 108.95004 | 37972 ft | 482 kts | 234° |
| 2026-05-07 20:46 | 19.28942 | 108.89504 | 37969 ft | 482 kts | 234° |
| 2026-05-07 20:46 | 19.24699 | 108.84024 | 37970 ft | 483 kts | 234° |
| 2026-05-07 20:47 | 19.20422 | 108.78512 | 37975 ft | 483 kts | 234° |
| 2026-05-07 20:47 | 19.16167 | 108.73029 | 37982 ft | 483 kts | 234° |
| 2026-05-07 20:48 | 19.11916 | 108.67549 | 37982 ft | 483 kts | 234° |
| 2026-05-07 20:48 | 19.07669 | 108.62079 | 37978 ft | 483 kts | 234° |
| 2026-05-07 20:49 | 19.03386 | 108.56569 | 37983 ft | 483 kts | 234° |
| 2026-05-07 20:49 | 18.99133 | 108.51103 | 37986 ft | 483 kts | 233° |
| 2026-05-07 20:50 | 18.94873 | 108.45631 | 37983 ft | 484 kts | 234° |
| 2026-05-07 20:50 | 18.90600 | 108.40147 | 37986 ft | 485 kts | 233° |
| 2026-05-07 20:51 | 18.86302 | 108.34666 | 37970 ft | 485 kts | 233° |
| 2026-05-07 20:51 | 18.82002 | 108.29165 | 37969 ft | 484 kts | 233° |
| 2026-05-07 20:52 | 18.77717 | 108.23673 | 37965 ft | 484 kts | 233° |
| 2026-05-07 20:52 | 18.73445 | 108.18205 | 37962 ft | 484 kts | 233° |
| 2026-05-07 20:53 | 18.69165 | 108.12737 | 37963 ft | 485 kts | 233° |
| 2026-05-07 20:53 | 18.64884 | 108.07272 | 37957 ft | 485 kts | 233° |
| 2026-05-07 20:54 | 18.60601 | 108.01808 | 37958 ft | 485 kts | 233° |
| 2026-05-07 20:54 | 18.56302 | 107.96329 | 37952 ft | 485 kts | 233° |
| 2026-05-07 20:55 | 18.51982 | 107.90826 | 37953 ft | 485 kts | 233° |
| 2026-05-07 20:55 | 18.47704 | 107.85381 | 37952 ft | 486 kts | 233° |
| 2026-05-07 20:56 | 18.43397 | 107.79904 | 37954 ft | 486 kts | 233° |
| 2026-05-07 20:56 | 18.39070 | 107.74404 | 37953 ft | 486 kts | 233° |
| 2026-05-07 20:57 | 18.34819 | 107.68885 | 37948 ft | 485 kts | 236° |
| 2026-05-07 20:57 | 18.31058 | 107.63078 | 37951 ft | 484 kts | 240° |
| 2026-05-07 20:58 | 18.27455 | 107.57109 | 37947 ft | 484 kts | 240° |
| 2026-05-07 20:58 | 18.23839 | 107.51116 | 37946 ft | 484 kts | 240° |
| 2026-05-07 20:59 | 18.20241 | 107.45166 | 37941 ft | 485 kts | 240° |
| 2026-05-07 20:59 | 18.16619 | 107.39185 | 37944 ft | 485 kts | 240° |
| 2026-05-07 21:00 | 18.12992 | 107.33196 | 37938 ft | 485 kts | 240° |
| 2026-05-07 21:00 | 18.09402 | 107.27250 | 37936 ft | 485 kts | 240° |
| 2026-05-07 21:01 | 18.05769 | 107.21262 | 37933 ft | 485 kts | 240° |
| 2026-05-07 21:01 | 18.02149 | 107.15320 | 37931 ft | 486 kts | 240° |
| 2026-05-07 21:02 | 17.98491 | 107.09321 | 37931 ft | 487 kts | 239° |
| 2026-05-07 21:02 | 17.94825 | 107.03315 | 37936 ft | 488 kts | 240° |
| 2026-05-07 21:03 | 17.91184 | 106.97353 | 37942 ft | 487 kts | 239° |
| 2026-05-07 21:03 | 17.87523 | 106.91386 | 37951 ft | 487 kts | 239° |
| 2026-05-07 21:04 | 17.83870 | 106.85415 | 37950 ft | 486 kts | 240° |
| 2026-05-07 21:04 | 17.80232 | 106.79440 | 37949 ft | 487 kts | 240° |
| 2026-05-07 21:05 | 17.76613 | 106.73486 | 37950 ft | 487 kts | 239° |
| 2026-05-07 21:05 | 17.72949 | 106.67464 | 37948 ft | 488 kts | 240° |
| 2026-05-07 21:06 | 17.69312 | 106.61488 | 37950 ft | 488 kts | 239° |
| 2026-05-07 21:06 | 17.65633 | 106.55479 | 37947 ft | 489 kts | 239° |
| 2026-05-07 21:07 | 17.61965 | 106.49515 | 37940 ft | 490 kts | 239° |
| 2026-05-07 21:07 | 17.58258 | 106.43478 | 37938 ft | 491 kts | 239° |
| 2026-05-07 21:08 | 17.54568 | 106.37468 | 37946 ft | 492 kts | 239° |
| 2026-05-07 21:08 | 17.50868 | 106.31432 | 37957 ft | 493 kts | 239° |
| 2026-05-07 21:09 | 17.47193 | 106.25430 | 37972 ft | 493 kts | 239° |
| 2026-05-07 21:09 | 17.43493 | 106.19411 | 37992 ft | 493 kts | 239° |
| 2026-05-07 21:10 | 17.39765 | 106.13361 | 38004 ft | 493 kts | 239° |
| 2026-05-07 21:10 | 17.36051 | 106.07332 | 38007 ft | 494 kts | 239° |
| 2026-05-07 21:11 | 17.32386 | 106.01296 | 37994 ft | 495 kts | 239° |
| 2026-05-07 21:11 | 17.26858 | 105.92164 | 37974 ft | 495 kts | 239° |
| 2026-05-07 21:12 | 17.23175 | 105.86089 | 37965 ft | 495 kts | 239° |
| 2026-05-07 21:12 | 17.19491 | 105.80019 | 37965 ft | 494 kts | 239° |
| 2026-05-07 21:13 | 17.15820 | 105.73978 | 37962 ft | 495 kts | 239° |
| 2026-05-07 21:13 | 17.12128 | 105.67905 | 37962 ft | 495 kts | 239° |
| 2026-05-07 21:14 | 17.08450 | 105.61860 | 37958 ft | 495 kts | 239° |
| 2026-05-07 21:14 | 17.04758 | 105.55798 | 37958 ft | 496 kts | 239° |
| 2026-05-07 21:15 | 17.01053 | 105.49719 | 37956 ft | 497 kts | 239° |
| 2026-05-07 21:15 | 16.97341 | 105.43636 | 37957 ft | 496 kts | 239° |
| 2026-05-07 21:16 | 16.93633 | 105.37563 | 37952 ft | 496 kts | 239° |
| 2026-05-07 21:16 | 16.89944 | 105.31512 | 37946 ft | 496 kts | 239° |
| 2026-05-07 21:17 | 16.86227 | 105.25455 | 37948 ft | 496 kts | 239° |
| 2026-05-07 21:17 | 16.82489 | 105.19387 | 37941 ft | 496 kts | 239° |
| 2026-05-07 21:18 | 16.78764 | 105.13334 | 37943 ft | 496 kts | 239° |
| 2026-05-07 21:18 | 16.75063 | 105.07312 | 37941 ft | 496 kts | 239° |
| 2026-05-07 21:19 | 16.71327 | 105.01233 | 37947 ft | 497 kts | 239° |
| 2026-05-07 21:19 | 16.67596 | 104.95168 | 37947 ft | 496 kts | 239° |
| 2026-05-07 21:20 | 16.63890 | 104.89145 | 37945 ft | 496 kts | 239° |
| 2026-05-07 21:20 | 16.60155 | 104.83083 | 37947 ft | 496 kts | 239° |
| 2026-05-07 21:21 | 16.56305 | 104.77175 | 37950 ft | 497 kts | 234° |
| 2026-05-07 21:21 | 16.51864 | 104.71619 | 37949 ft | 499 kts | 230° |
| 2026-05-07 21:22 | 16.47230 | 104.66232 | 37944 ft | 499 kts | 230° |
| 2026-05-07 21:22 | 16.42612 | 104.60867 | 37940 ft | 499 kts | 230° |
| 2026-05-07 21:23 | 16.37983 | 104.55484 | 37935 ft | 499 kts | 230° |
| 2026-05-07 21:23 | 16.33346 | 104.50092 | 37934 ft | 499 kts | 230° |
| 2026-05-07 21:24 | 16.28748 | 104.44746 | 37932 ft | 499 kts | 230° |
| 2026-05-07 21:24 | 16.24069 | 104.39354 | 37931 ft | 499 kts | 230° |
| 2026-05-07 21:25 | 16.19426 | 104.34060 | 37930 ft | 498 kts | 230° |
| 2026-05-07 21:25 | 16.14756 | 104.28698 | 37930 ft | 499 kts | 230° |
| 2026-05-07 21:26 | 16.10110 | 104.23379 | 37926 ft | 499 kts | 230° |
| 2026-05-07 21:26 | 16.05420 | 104.18026 | 37922 ft | 499 kts | 230° |
| 2026-05-07 21:27 | 16.00829 | 104.12687 | 37921 ft | 499 kts | 230° |
| 2026-05-07 21:27 | 15.96205 | 104.07281 | 37919 ft | 499 kts | 230° |
| 2026-05-07 21:28 | 15.91583 | 104.01887 | 37917 ft | 499 kts | 230° |
| 2026-05-07 21:28 | 15.86978 | 103.96541 | 37917 ft | 499 kts | 230° |
| 2026-05-07 21:29 | 15.82335 | 103.91172 | 37917 ft | 499 kts | 230° |
| 2026-05-07 21:29 | 15.77713 | 103.85814 | 37920 ft | 499 kts | 230° |
| 2026-05-07 21:30 | 15.73084 | 103.80440 | 37926 ft | 499 kts | 230° |
| 2026-05-07 21:30 | 15.68474 | 103.75088 | 37933 ft | 499 kts | 230° |
| 2026-05-07 21:31 | 15.63835 | 103.69708 | 37936 ft | 499 kts | 230° |
| 2026-05-07 21:31 | 15.59204 | 103.64339 | 37935 ft | 499 kts | 230° |
| 2026-05-07 21:32 | 15.54598 | 103.59002 | 37934 ft | 499 kts | 230° |
| 2026-05-07 21:32 | 15.49971 | 103.53646 | 37936 ft | 499 kts | 230° |
| 2026-05-07 21:33 | 15.45342 | 103.48288 | 37936 ft | 499 kts | 230° |
| 2026-05-07 21:33 | 15.40709 | 103.42934 | 37938 ft | 500 kts | 230° |
| 2026-05-07 21:34 | 15.36058 | 103.37560 | 37939 ft | 499 kts | 230° |
| 2026-05-07 21:34 | 15.31438 | 103.32217 | 37943 ft | 500 kts | 230° |
| 2026-05-07 21:35 | 15.26795 | 103.26832 | 37942 ft | 500 kts | 230° |
| 2026-05-07 21:35 | 15.22170 | 103.21491 | 37949 ft | 500 kts | 230° |
| 2026-05-07 21:36 | 15.17506 | 103.16117 | 37943 ft | 500 kts | 230° |
| 2026-05-07 21:36 | 15.12877 | 103.10789 | 37943 ft | 501 kts | 230° |
| 2026-05-07 21:37 | 15.08125 | 103.05531 | 37946 ft | 502 kts | 225° |
| 2026-05-07 21:37 | 15.02865 | 103.00757 | 37945 ft | 504 kts | 219° |
| 2026-05-07 21:38 | 14.97125 | 102.96584 | 37938 ft | 505 kts | 214° |
| 2026-05-07 21:38 | 14.91523 | 102.92223 | 37929 ft | 503 kts | 224° |
| 2026-05-07 21:39 | 14.89078 | 102.89646 | 37627 ft | 501 kts | 231° |
| 2026-05-07 21:39 | 14.86934 | 102.86786 | 37337 ft | 497 kts | 238° |
| 2026-05-07 21:39 | 14.85163 | 102.83753 | 37042 ft | 493 kts | 244° |
| 2026-05-07 21:39 | 14.83752 | 102.80566 | 36749 ft | 490 kts | 251° |
| 2026-05-07 21:40 | 14.82647 | 102.77251 | 36461 ft | 489 kts | 254° |
| 2026-05-07 21:40 | 14.81624 | 102.73904 | 36161 ft | 491 kts | 254° |
| 2026-05-07 21:40 | 14.80609 | 102.70528 | 35863 ft | 491 kts | 255° |
| 2026-05-07 21:40 | 14.79605 | 102.67198 | 35570 ft | 492 kts | 254° |
| 2026-05-07 21:41 | 14.78578 | 102.63814 | 35274 ft | 493 kts | 254° |
| 2026-05-07 21:41 | 14.77550 | 102.60445 | 34977 ft | 494 kts | 254° |
| 2026-05-07 21:41 | 14.76519 | 102.57082 | 34685 ft | 495 kts | 254° |
| 2026-05-07 21:41 | 14.75466 | 102.53651 | 34380 ft | 497 kts | 254° |
| 2026-05-07 21:42 | 14.74420 | 102.50253 | 33926 ft | 499 kts | 254° |
| 2026-05-07 21:42 | 14.73376 | 102.46859 | 33345 ft | 501 kts | 254° |
| 2026-05-07 21:42 | 14.72325 | 102.43446 | 32666 ft | 503 kts | 254° |
| 2026-05-07 21:42 | 14.71258 | 102.39983 | 31994 ft | 504 kts | 253° |
| 2026-05-07 21:43 | 14.70201 | 102.36552 | 31311 ft | 504 kts | 253° |
| 2026-05-07 21:43 | 14.69140 | 102.33108 | 30620 ft | 504 kts | 253° |
| 2026-05-07 21:43 | 14.68087 | 102.29680 | 29936 ft | 503 kts | 252° |
| 2026-05-07 21:43 | 14.67028 | 102.26235 | 29239 ft | 503 kts | 252° |
| 2026-05-07 21:44 | 14.65972 | 102.22812 | 28575 ft | 507 kts | 252° |
| 2026-05-07 21:44 | 14.64910 | 102.19374 | 27875 ft | 508 kts | 252° |
| 2026-05-07 21:44 | 14.63832 | 102.15894 | 27326 ft | 503 kts | 252° |
| 2026-05-07 21:44 | 14.62783 | 102.12511 | 26830 ft | 498 kts | 252° |
| 2026-05-07 21:45 | 14.61733 | 102.09126 | 26241 ft | 494 kts | 252° |
| 2026-05-07 21:45 | 14.60682 | 102.05736 | 25706 ft | 490 kts | 252° |
| 2026-05-07 21:45 | 14.59661 | 102.02446 | 25215 ft | 485 kts | 252° |
| 2026-05-07 21:45 | 14.58634 | 101.99139 | 24735 ft | 480 kts | 251° |
| 2026-05-07 21:46 | 14.57620 | 101.95879 | 24251 ft | 475 kts | 251° |
| 2026-05-07 21:46 | 14.56596 | 101.92670 | 23782 ft | 470 kts | 250° |
| 2026-05-07 21:46 | 14.55445 | 101.89571 | 23317 ft | 465 kts | 247° |
| 2026-05-07 21:46 | 14.54218 | 101.86484 | 22845 ft | 461 kts | 246° |
| 2026-05-07 21:47 | 14.53005 | 101.83466 | 22377 ft | 457 kts | 246° |
| 2026-05-07 21:47 | 14.51788 | 101.80437 | 21914 ft | 453 kts | 246° |
| 2026-05-07 21:47 | 14.50589 | 101.77455 | 21446 ft | 449 kts | 246° |
| 2026-05-07 21:47 | 14.49410 | 101.74520 | 20970 ft | 446 kts | 246° |
| 2026-05-07 21:48 | 14.48228 | 101.71577 | 20504 ft | 442 kts | 246° |
| 2026-05-07 21:48 | 14.47053 | 101.68649 | 20034 ft | 439 kts | 246° |
| 2026-05-07 21:48 | 14.45898 | 101.65767 | 19567 ft | 436 kts | 246° |
| 2026-05-07 21:48 | 14.44743 | 101.62889 | 19099 ft | 433 kts | 246° |
| 2026-05-07 21:49 | 14.43589 | 101.60013 | 18636 ft | 430 kts | 246° |
| 2026-05-07 21:49 | 14.42449 | 101.57172 | 18186 ft | 427 kts | 246° |
| 2026-05-07 21:49 | 14.41322 | 101.54367 | 17730 ft | 424 kts | 246° |
| 2026-05-07 21:49 | 14.40201 | 101.51577 | 17281 ft | 421 kts | 246° |
| 2026-05-07 21:50 | 14.39091 | 101.48818 | 16841 ft | 418 kts | 246° |
| 2026-05-07 21:50 | 14.37984 | 101.46065 | 16389 ft | 415 kts | 246° |
| 2026-05-07 21:50 | 14.36876 | 101.43308 | 15947 ft | 412 kts | 247° |
| 2026-05-07 21:50 | 14.35791 | 101.40610 | 15782 ft | 407 kts | 247° |
| 2026-05-07 21:51 | 14.34710 | 101.37924 | 15609 ft | 404 kts | 247° |
| 2026-05-07 21:51 | 14.33641 | 101.35269 | 15380 ft | 395 kts | 247° |
| 2026-05-07 21:51 | 14.32615 | 101.32715 | 15283 ft | 382 kts | 246° |
| 2026-05-07 21:51 | 14.31575 | 101.30229 | 15093 ft | 372 kts | 241° |
| 2026-05-07 21:52 | 14.30162 | 101.28076 | 14793 ft | 364 kts | 227° |
| 2026-05-07 21:52 | 14.28345 | 101.26283 | 14450 ft | 360 kts | 219° |
| 2026-05-07 21:52 | 14.26394 | 101.24621 | 14024 ft | 359 kts | 218° |
| 2026-05-07 21:52 | 14.24466 | 101.23013 | 13641 ft | 357 kts | 218° |
| 2026-05-07 21:53 | 14.22529 | 101.21391 | 13269 ft | 355 kts | 218° |
| 2026-05-07 21:53 | 14.20641 | 101.19800 | 12915 ft | 354 kts | 218° |
| 2026-05-07 21:53 | 14.18722 | 101.18174 | 12556 ft | 353 kts | 218° |
| 2026-05-07 21:53 | 14.16825 | 101.16562 | 12205 ft | 351 kts | 218° |
| 2026-05-07 21:54 | 14.14955 | 101.14970 | 11863 ft | 349 kts | 218° |
| 2026-05-07 21:54 | 14.13083 | 101.13379 | 11519 ft | 347 kts | 218° |
| 2026-05-07 21:54 | 14.11219 | 101.11794 | 11353 ft | 341 kts | 218° |
| 2026-05-07 21:54 | 14.09442 | 101.10282 | 11315 ft | 327 kts | 218° |
| 2026-05-07 21:55 | 14.07714 | 101.08811 | 11299 ft | 313 kts | 217° |
| 2026-05-07 21:55 | 14.05963 | 101.07502 | 11107 ft | 307 kts | 206° |
| 2026-05-07 21:55 | 14.04010 | 101.06654 | 10853 ft | 302 kts | 194° |
| 2026-05-07 21:55 | 14.01982 | 101.06080 | 10575 ft | 300 kts | 192° |
| 2026-05-07 21:56 | 13.99956 | 101.05550 | 10294 ft | 299 kts | 192° |
| 2026-05-07 21:56 | 13.97939 | 101.05017 | 10014 ft | 298 kts | 192° |
| 2026-05-07 21:56 | 13.95928 | 101.04476 | 9740 ft | 296 kts | 192° |
| 2026-05-07 21:56 | 13.93938 | 101.03934 | 9466 ft | 294 kts | 192° |
| 2026-05-07 21:57 | 13.91953 | 101.03391 | 9190 ft | 292 kts | 192° |
| 2026-05-07 21:57 | 13.89986 | 101.02852 | 8920 ft | 291 kts | 192° |
| 2026-05-07 21:57 | 13.88034 | 101.02317 | 8650 ft | 290 kts | 192° |
| 2026-05-07 21:57 | 13.86076 | 101.01783 | 8381 ft | 289 kts | 192° |
| 2026-05-07 21:58 | 13.84144 | 101.01252 | 8111 ft | 289 kts | 195° |
| 2026-05-07 21:58 | 13.82357 | 101.00279 | 7798 ft | 291 kts | 224° |
| 2026-05-07 21:58 | 13.81323 | 100.98531 | 7570 ft | 289 kts | 253° |
| 2026-05-07 21:58 | 13.81224 | 100.96509 | 7289 ft | 286 kts | 282° |
| 2026-05-07 21:59 | 13.81753 | 100.94564 | 7064 ft | 281 kts | 287° |
| 2026-05-07 21:59 | 13.82298 | 100.92658 | 7008 ft | 269 kts | 287° |
| 2026-05-07 21:59 | 13.82851 | 100.90867 | 6930 ft | 259 kts | 297° |
| 2026-05-07 21:59 | 13.84017 | 100.89561 | 6846 ft | 247 kts | 336° |
| 2026-05-07 22:00 | 13.85672 | 100.89187 | 6604 ft | 244 kts | 8° |
| 2026-05-07 22:00 | 13.87298 | 100.89602 | 6365 ft | 241 kts | 19° |
| 2026-05-07 22:00 | 13.88931 | 100.90103 | 6145 ft | 242 kts | 18° |
| 2026-05-07 22:00 | 13.90550 | 100.90578 | 5919 ft | 242 kts | 17° |
| 2026-05-07 22:01 | 13.92176 | 100.91040 | 5705 ft | 242 kts | 16° |
| 2026-05-07 22:01 | 13.93830 | 100.91499 | 5480 ft | 242 kts | 16° |
| 2026-05-07 22:01 | 13.95444 | 100.91944 | 5257 ft | 241 kts | 16° |
| 2026-05-07 22:01 | 13.97077 | 100.92383 | 5028 ft | 241 kts | 11° |
| 2026-05-07 22:02 | 13.98719 | 100.92261 | 4766 ft | 241 kts | 335° |
| 2026-05-07 22:02 | 13.99981 | 100.91173 | 4522 ft | 240 kts | 301° |
| 2026-05-07 22:02 | 14.00532 | 100.89568 | 4313 ft | 237 kts | 282° |
| 2026-05-07 22:02 | 14.00883 | 100.87894 | 4092 ft | 239 kts | 283° |
| 2026-05-07 22:03 | 14.01090 | 100.86214 | 3846 ft | 239 kts | 261° |
| 2026-05-07 22:03 | 14.00376 | 100.84695 | 3630 ft | 237 kts | 225° |
| 2026-05-07 22:03 | 13.98966 | 100.83860 | 3369 ft | 237 kts | 195° |
| 2026-05-07 22:03 | 13.97356 | 100.83472 | 3156 ft | 236 kts | 194° |
| 2026-05-07 22:04 | 13.95762 | 100.83079 | 2936 ft | 235 kts | 194° |
| 2026-05-07 22:04 | 13.94164 | 100.82676 | 2722 ft | 233 kts | 195° |
| 2026-05-07 22:04 | 13.92600 | 100.82272 | 2517 ft | 231 kts | 195° |
| 2026-05-07 22:04 | 13.91043 | 100.81866 | 2352 ft | 227 kts | 195° |
| 2026-05-07 22:05 | 13.89524 | 100.81466 | 2185 ft | 223 kts | 195° |
| 2026-05-07 22:05 | 13.88033 | 100.81073 | 2102 ft | 215 kts | 195° |
| 2026-05-07 22:05 | 13.86618 | 100.80699 | 2053 ft | 205 kts | 195° |
| 2026-05-07 22:05 | 13.85252 | 100.80338 | 1999 ft | 196 kts | 195° |
| 2026-05-07 22:06 | 13.83957 | 100.79996 | 1998 ft | 187 kts | 195° |
| 2026-05-07 22:06 | 13.82741 | 100.79678 | 2007 ft | 172 kts | 195° |
| 2026-05-07 22:06 | 13.81587 | 100.79376 | 2018 ft | 168 kts | 195° |
| 2026-05-07 22:06 | 13.80451 | 100.79076 | 2004 ft | 168 kts | 196° |
| 2026-05-07 22:07 | 13.79312 | 100.78767 | 1961 ft | 168 kts | 196° |
| 2026-05-07 22:07 | 13.78178 | 100.78465 | 1776 ft | 167 kts | 195° |
| 2026-05-07 22:07 | 13.77082 | 100.78178 | 1553 ft | 158 kts | 195° |
| 2026-05-07 22:07 | 13.76045 | 100.77908 | 1344 ft | 150 kts | 195° |
| 2026-05-07 22:08 | 13.75032 | 100.77645 | 1164 ft | 150 kts | 195° |
| 2026-05-07 22:08 | 13.74021 | 100.77378 | 978 ft | 150 kts | 194° |
| 2026-05-07 22:08 | 13.73000 | 100.77110 | 790 ft | 150 kts | 194° |
| 2026-05-07 22:08 | 13.71994 | 100.76846 | 599 ft | 150 kts | 194° |
| 2026-05-07 22:09 | 13.70970 | 100.76576 | 400 ft | 149 kts | 194° |
| 2026-05-07 22:09 | 13.69970 | 100.76312 | 211 ft | 149 kts | 193° |
| 2026-05-07 22:09 | 13.68968 | 100.76046 | 34 ft | 147 kts | 193° |
| 2026-05-07 22:09 | 13.68089 | 100.75820 | 17 ft | 104 kts | 194° |
| 2026-05-07 22:10 | 13.67486 | 100.75657 | 16 ft | 83 kts | 195° |